createdAt,value
2018-07-08T00:00:36.480Z,97701.76
2018-07-08T00:03:06.532Z,97701.81
2018-07-08T00:05:36.413Z,97694.71
2018-07-08T00:08:06.537Z,97700.20
2018-07-08T00:10:40.062Z,97694.07
2018-07-08T00:13:11.024Z,97694.52
2018-07-08T00:15:40.897Z,97694.09
2018-07-08T00:18:10.735Z,97698.98
2018-07-08T00:20:40.729Z,97700.31
2018-07-08T00:23:10.914Z,97697.79
2018-07-08T00:25:40.916Z,97696.98
2018-07-08T00:28:10.781Z,97695.41
2018-07-08T00:30:40.728Z,97693.56
2018-07-08T00:33:19.510Z,97698.14
2018-07-08T00:35:55.844Z,97691.41
2018-07-08T00:38:35.164Z,97691.17
2018-07-08T00:41:11.986Z,97696.91
2018-07-08T00:43:52.293Z,97687.29
2018-07-08T00:46:29.607Z,97693.08
2018-07-08T00:49:13.322Z,97689.03
2018-07-08T00:51:53.468Z,97683.95
2018-07-08T00:54:31.563Z,97685.63
2018-07-08T00:57:11.486Z,97695.06
2018-07-08T00:59:48.256Z,97688.80
2018-07-08T01:02:25.438Z,97691.28
2018-07-08T01:05:05.242Z,97696.23
2018-07-08T01:07:43.645Z,97684.61
2018-07-08T01:10:19.037Z,97692.34
2018-07-08T01:13:01.776Z,97692.63
2018-07-08T01:15:44.033Z,97680.53
2018-07-08T01:18:19.015Z,97682.67
2018-07-08T01:20:55.326Z,97684.94
2018-07-08T01:23:36.266Z,97685.05
2018-07-08T01:26:21.741Z,97688.99
2018-07-08T01:31:46.777Z,97689.77
2018-07-08T01:34:22.529Z,97695.75
2018-07-08T01:37:04.350Z,97694.20
2018-07-08T01:39:41.202Z,97689.58
2018-07-08T01:42:17.464Z,97693.44
2018-07-08T01:44:59.811Z,97689.06
2018-07-08T01:47:36.644Z,97689.02
2018-07-08T01:50:14.057Z,97688.83
2018-07-08T01:55:41.899Z,97692.27
2018-07-08T01:58:22.662Z,97685.92
2018-07-08T02:01:03.392Z,97677.52
2018-07-08T02:03:38.617Z,97680.53
2018-07-08T02:06:12.812Z,97679.83
2018-07-08T02:08:54.130Z,97682.11
2018-07-08T02:11:28.221Z,97682.11
2018-07-08T02:14:05.599Z,97684.41
2018-07-08T02:16:40.272Z,97683.87
2018-07-08T02:19:16.005Z,97682.47
2018-07-08T02:21:57.528Z,97685.05
2018-07-08T02:24:35.794Z,97674.95
2018-07-08T02:27:12.597Z,97679.81
2018-07-08T02:29:50.801Z,97680.38
2018-07-08T02:32:28.263Z,97675.44
2018-07-08T02:35:08.732Z,97678.24
2018-07-08T02:37:48.901Z,97678.53
2018-07-08T02:40:28.172Z,97684.17
2018-07-08T02:43:11.527Z,97678.94
2018-07-08T02:45:50.303Z,97687.11
2018-07-08T02:48:26.555Z,97689.04
2018-07-08T02:51:03.336Z,97683.27
2018-07-08T02:53:40.225Z,97682.39
2018-07-08T02:56:22.891Z,97684.64
2018-07-08T02:58:59.294Z,97680.98
2018-07-08T03:01:39.568Z,97677.73
2018-07-08T03:04:18.307Z,97672.11
2018-07-08T03:06:58.967Z,97673.66
2018-07-08T03:09:36.551Z,97679.77
2018-07-08T03:12:25.024Z,97681.59
2018-07-08T03:15:00.718Z,97678.94
2018-07-08T03:20:19.660Z,97676.09
2018-07-08T03:22:57.987Z,97686.81
2018-07-08T03:25:33.901Z,97681.51
2018-07-08T03:30:59.078Z,97684.12
2018-07-08T03:33:39.344Z,97685.02
2018-07-08T03:36:21.642Z,97682.56
2018-07-08T03:38:56.686Z,97678.23
2018-07-08T03:41:45.367Z,97686.28
2018-07-08T03:44:26.669Z,97678.23
2018-07-08T03:47:09.124Z,97679.92
2018-07-08T03:49:45.640Z,97681.59
2018-07-08T03:52:25.805Z,97682.48
2018-07-08T03:55:01.314Z,97683.06
2018-07-08T03:57:39.416Z,97687.34
2018-07-08T04:00:20.537Z,97686.13
2018-07-08T04:02:55.313Z,97680.33
2018-07-08T04:05:36.231Z,97683.81
2018-07-08T04:08:12.896Z,97680.81
2018-07-08T04:10:48.840Z,97687.13
2018-07-08T04:13:28.532Z,97676.55
2018-07-08T04:16:04.960Z,97689.67
2018-07-08T04:18:48.560Z,97682.83
2018-07-08T04:21:28.068Z,97680.90
2018-07-08T04:24:07.760Z,97682.63
2018-07-08T04:26:42.193Z,97682.09
2018-07-08T04:32:04.996Z,97678.15
2018-07-08T04:34:43.070Z,97678.78
2018-07-08T04:37:20.984Z,97682.98
2018-07-08T04:40:04.296Z,97679.07
2018-07-08T04:42:43.489Z,97682.70
2018-07-08T04:45:19.193Z,97681.73
2018-07-08T04:50:45.816Z,97678.34
2018-07-08T04:53:34.396Z,97680.12
2018-07-08T04:56:14.775Z,97675.43
2018-07-08T04:58:57.403Z,97682.22
2018-07-08T05:01:32.162Z,97673.59
2018-07-08T05:04:09.637Z,97672.22
2018-07-08T05:06:51.148Z,97669.78
2018-07-08T05:09:30.765Z,97666.75
2018-07-08T05:17:42.157Z,97665.17
2018-07-08T05:20:22.509Z,97669.47
2018-07-08T05:22:58.092Z,97672.90
2018-07-08T05:25:39.855Z,97671.64
2018-07-08T05:28:18.673Z,97675.36
2018-07-08T05:30:53.720Z,97670.69
2018-07-08T05:33:34.277Z,97677.98
2018-07-08T05:36:17.965Z,97673.39
2018-07-08T05:41:43.338Z,97674.88
2018-07-08T05:44:25.081Z,97672.81
2018-07-08T05:47:06.564Z,97677.19
2018-07-08T05:49:47.511Z,97673.97
2018-07-08T05:52:30.432Z,97672.42
2018-07-08T05:55:06.242Z,97682.19
2018-07-08T05:57:41.991Z,97672.20
2018-07-08T06:00:22.961Z,97673.74
2018-07-08T06:03:04.155Z,97672.77
2018-07-08T06:05:51.410Z,97675.44
2018-07-08T06:08:33.254Z,97669.29
2018-07-08T06:11:09.649Z,97672.45
2018-07-08T06:13:54.376Z,97670.98
2018-07-08T06:16:32.494Z,97672.97
2018-07-08T06:21:58.084Z,97672.80
2018-07-08T06:24:35.461Z,97669.32
2018-07-08T06:27:12.601Z,97657.77
2018-07-08T06:29:49.221Z,97661.50
2018-07-08T06:32:26.152Z,97669.28
2018-07-08T06:35:03.300Z,97666.86
2018-07-08T06:37:42.151Z,97664.44
2018-07-08T06:40:20.730Z,97661.66
2018-07-08T06:42:57.541Z,97661.45
2018-07-08T06:45:37.428Z,97662.84
2018-07-08T06:48:15.265Z,97661.72
2018-07-08T06:51:04.339Z,97660.41
2018-07-08T06:53:42.678Z,97659.65
2018-07-08T06:56:19.076Z,97660.16
2018-07-08T06:59:03.163Z,97658.27
2018-07-08T07:01:42.260Z,97659.61
2018-07-08T07:04:19.359Z,97658.27
2018-07-08T07:06:57.839Z,97656.13
2018-07-08T07:09:32.909Z,97663.34
2018-07-08T07:12:16.484Z,97665.46
2018-07-08T07:17:39.622Z,97662.82
2018-07-08T07:20:17.237Z,97660.12
2018-07-08T07:23:04.796Z,97656.67
2018-07-08T07:25:41.754Z,97658.88
2018-07-08T07:28:20.638Z,97661.81
2018-07-08T07:31:01.837Z,97651.58
2018-07-08T07:33:38.925Z,97650.52
2018-07-08T07:36:23.025Z,97652.13
2018-07-08T07:39:03.610Z,97647.03
2018-07-08T07:41:45.330Z,97644.09
2018-07-08T07:44:22.617Z,97643.77
2018-07-08T07:47:04.553Z,97650.45
2018-07-08T07:49:43.753Z,97639.66
2018-07-08T07:52:28.852Z,97641.02
2018-07-08T07:55:06.628Z,97637.73
2018-07-08T07:57:46.897Z,97646.66
2018-07-08T08:00:28.386Z,97640.98
2018-07-08T08:03:13.525Z,97638.29
2018-07-08T08:08:35.655Z,97631.02
2018-07-08T08:11:15.154Z,97631.97
2018-07-08T08:14:02.627Z,97636.62
2018-07-08T08:16:40.555Z,97629.89
2018-07-08T08:19:16.949Z,97638.80
2018-07-08T08:21:50.106Z,97633.27
2018-07-08T08:24:25.310Z,97630.36
2018-07-08T08:27:06.186Z,97624.34
2018-07-08T08:29:45.608Z,97621.94
2018-07-08T08:32:21.889Z,97619.83
2018-07-08T08:35:04.986Z,97616.66
2018-07-08T08:37:49.591Z,97614.30
2018-07-08T08:40:28.804Z,97620.84
2018-07-08T08:45:45.659Z,97618.98
2018-07-08T08:48:22.451Z,97617.67
2018-07-08T08:50:59.832Z,97621.34
2018-07-08T08:53:33.179Z,97620.45
2018-07-08T08:56:17.092Z,97616.13
2018-07-08T08:58:59.157Z,97615.92
2018-07-08T09:01:35.227Z,97616.50
2018-07-08T09:04:14.500Z,97612.59
2018-07-08T09:06:52.709Z,97616.15
2018-07-08T09:09:30.478Z,97607.80
2018-07-08T09:12:12.177Z,97610.59
2018-07-08T09:14:53.223Z,97618.48
2018-07-08T09:17:34.875Z,97614.72
2018-07-08T09:20:10.831Z,97616.27
2018-07-08T09:22:51.974Z,97616.48
2018-07-08T09:25:31.094Z,97615.55
2018-07-08T09:28:07.539Z,97619.25
2018-07-08T09:30:42.636Z,97615.65
2018-07-08T09:33:27.786Z,97615.14
2018-07-08T09:36:01.318Z,97612.12
2018-07-08T09:38:41.839Z,97612.80
2018-07-08T09:44:05.208Z,97610.28
2018-07-08T09:46:49.640Z,97612.78
2018-07-08T09:49:29.695Z,97617.50
2018-07-08T09:52:11.994Z,97611.17
2018-07-08T09:57:29.233Z,97609.83
2018-07-08T10:00:04.646Z,97610.06
2018-07-08T10:05:29.810Z,97607.56
2018-07-08T10:08:08.728Z,97602.66
2018-07-08T10:10:46.072Z,97597.33
2018-07-08T10:13:23.213Z,97603.04
2018-07-08T10:16:00.368Z,97605.56
2018-07-08T10:18:42.285Z,97603.45
2018-07-08T10:21:22.885Z,97603.17
2018-07-08T10:23:58.866Z,97601.78
2018-07-08T10:26:36.937Z,97606.84
2018-07-08T10:29:21.678Z,97613.21
2018-07-08T10:32:00.749Z,97616.59
2018-07-08T10:34:38.359Z,97612.80
2018-07-08T10:37:18.405Z,97620.02
2018-07-08T10:39:55.486Z,97619.08
2018-07-08T10:42:34.839Z,97615.37
2018-07-08T10:45:15.873Z,97610.88
2018-07-08T10:47:52.738Z,97614.00
2018-07-08T10:50:35.184Z,97613.37
2018-07-08T10:53:24.100Z,97614.44
2018-07-08T10:56:05.361Z,97618.62
2018-07-08T10:58:45.371Z,97609.93
2018-07-08T11:06:59.224Z,97607.12
2018-07-08T11:09:38.080Z,97599.02
2018-07-08T11:12:15.967Z,97604.20
2018-07-08T11:14:50.588Z,97599.82
2018-07-08T11:17:24.148Z,97603.39
2018-07-08T11:20:03.449Z,97593.17
2018-07-08T11:22:43.377Z,97590.06
2018-07-08T11:25:20.846Z,97582.09
2018-07-08T11:28:00.453Z,97581.56
2018-07-08T11:30:34.702Z,97578.69
2018-07-08T11:33:15.429Z,97571.56
2018-07-08T11:35:55.928Z,97560.27
2018-07-08T11:38:32.830Z,97563.55
2018-07-08T11:41:11.111Z,97558.27
2018-07-08T11:43:52.008Z,97556.47
2018-07-08T11:46:30.355Z,97558.12
2018-07-08T11:49:10.926Z,97554.05
2018-07-08T11:51:47.792Z,97554.93
2018-07-08T11:54:27.960Z,97562.14
2018-07-08T11:57:04.641Z,97563.23
2018-07-08T11:59:46.340Z,97566.30
2018-07-08T12:02:25.736Z,97569.41
2018-07-08T12:05:05.447Z,97565.84
2018-07-08T12:07:47.061Z,97567.34
2018-07-08T12:10:30.173Z,97564.83
2018-07-08T12:13:07.683Z,97567.88
2018-07-08T12:15:48.884Z,97566.61
2018-07-08T12:18:26.927Z,97570.09
2018-07-08T12:21:05.087Z,97572.04
2018-07-08T12:23:42.479Z,97567.69
2018-07-08T12:26:18.673Z,97574.33
2018-07-08T12:28:58.884Z,97559.33
2018-07-08T12:31:39.684Z,97566.05
2018-07-08T12:36:59.331Z,97568.09
2018-07-08T12:39:45.362Z,97564.40
2018-07-08T12:42:30.324Z,97567.97
2018-07-08T12:45:17.421Z,97565.33
2018-07-08T12:47:52.822Z,97562.14
2018-07-08T12:50:34.132Z,97556.03
2018-07-08T12:53:14.927Z,97561.02
2018-07-08T12:55:59.954Z,97555.75
2018-07-08T12:58:40.989Z,97551.62
2018-07-08T13:01:27.341Z,97551.78
2018-07-08T13:04:09.893Z,97541.67
2018-07-08T13:06:51.377Z,97540.84
2018-07-08T13:09:30.171Z,97540.75
2018-07-08T13:12:10.832Z,97533.98
2018-07-08T13:17:42.710Z,97530.59
2018-07-08T13:20:22.476Z,97530.64
2018-07-08T13:22:57.210Z,97530.04
2018-07-08T13:25:33.088Z,97528.80
2018-07-08T13:28:07.877Z,97518.22
2018-07-08T13:30:45.450Z,97526.41
2018-07-08T13:33:24.967Z,97517.90
2018-07-08T13:36:02.745Z,97517.45
2018-07-08T13:38:39.224Z,97515.00
2018-07-08T13:41:21.202Z,97519.45
2018-07-08T13:44:03.070Z,97522.38
2018-07-08T13:46:46.301Z,97521.86
2018-07-08T13:49:22.141Z,97527.11
2018-07-08T13:52:02.988Z,97521.11
2018-07-08T13:54:37.454Z,97515.48
2018-07-08T13:57:23.258Z,97518.34
2018-07-08T14:00:06.584Z,97512.66
2018-07-08T14:02:45.545Z,97507.45
2018-07-08T14:05:23.141Z,97510.11
2018-07-08T14:08:06.667Z,97503.92
2018-07-08T14:10:47.154Z,97510.46
2018-07-08T14:13:27.712Z,97518.53
2018-07-08T14:16:05.536Z,97515.17
2018-07-08T14:18:41.353Z,97512.92
2018-07-08T14:21:26.132Z,97506.69
2018-07-08T14:24:14.398Z,97500.61
2018-07-08T14:26:49.727Z,97503.87
2018-07-08T14:29:26.014Z,97504.85
2018-07-08T14:32:06.008Z,97512.58
2018-07-08T14:34:41.800Z,97505.25
2018-07-08T14:37:25.354Z,97503.16
2018-07-08T14:40:09.983Z,97505.14
2018-07-08T14:42:55.570Z,97510.11
2018-07-08T14:45:33.514Z,97511.35
2018-07-08T14:48:14.963Z,97511.20
2018-07-08T14:50:48.404Z,97504.84
2018-07-08T14:53:23.299Z,97506.38
2018-07-08T14:56:06.752Z,97509.97
2018-07-08T14:58:46.951Z,97504.44
2018-07-08T15:01:26.844Z,97507.05
2018-07-08T15:04:09.584Z,97506.86
2018-07-08T15:06:52.844Z,97508.41
2018-07-08T15:09:29.361Z,97498.76
2018-07-08T15:12:08.777Z,97502.92
2018-07-08T15:17:24.569Z,97494.92
2018-07-08T15:19:59.018Z,97492.60
2018-07-08T15:22:37.026Z,97495.45
2018-07-08T15:25:16.535Z,97492.29
2018-07-08T15:27:56.928Z,97486.91
2018-07-08T15:30:34.056Z,97484.34
2018-07-08T15:33:16.413Z,97477.59
2018-07-08T15:35:56.159Z,97485.96
2018-07-08T15:38:39.242Z,97487.31
2018-07-08T15:41:20.677Z,97480.80
2018-07-08T15:44:02.740Z,97482.64
2018-07-08T15:46:35.637Z,97482.75
2018-07-08T15:49:15.655Z,97482.97
2018-07-08T15:51:54.810Z,97486.61
2018-07-08T15:54:31.638Z,97480.45
2018-07-08T15:57:07.228Z,97487.19
2018-07-08T15:59:48.028Z,97485.92
2018-07-08T16:02:27.990Z,97490.00
2018-07-08T16:05:01.174Z,97489.39
2018-07-08T16:07:39.781Z,97484.69
2018-07-08T16:13:07.050Z,97492.69
2018-07-08T16:18:38.956Z,97487.84
2018-07-08T16:21:22.237Z,97491.19
2018-07-08T16:24:02.255Z,97486.22
2018-07-08T16:26:41.655Z,97485.04
2018-07-08T16:32:05.778Z,97485.41
2018-07-08T16:34:42.388Z,97483.96
2018-07-08T16:37:23.596Z,97482.94
2018-07-08T16:40:05.212Z,97484.28
2018-07-08T16:42:48.016Z,97491.16
2018-07-08T16:45:29.241Z,97493.54
2018-07-08T16:48:16.868Z,97491.97
2018-07-08T16:50:59.243Z,97498.75
2018-07-08T16:53:40.846Z,97493.50
2018-07-08T16:56:29.928Z,97497.73
2018-07-08T16:59:11.927Z,97507.06
2018-07-08T17:01:54.870Z,97503.59
2018-07-08T17:04:34.414Z,97511.31
2018-07-08T17:07:22.599Z,97514.98
2018-07-08T17:10:02.059Z,97525.91
2018-07-08T17:12:47.592Z,97532.00
2018-07-08T17:15:29.114Z,97542.09
2018-07-08T17:18:13.236Z,97542.59
2018-07-08T17:20:54.948Z,97544.03
2018-07-08T17:23:38.222Z,97553.70
2018-07-08T17:26:18.941Z,97560.45
2018-07-08T17:29:00.358Z,97571.63
2018-07-08T17:31:37.677Z,97585.30
2018-07-08T17:34:25.604Z,97585.44
2018-07-08T17:37:11.627Z,97583.13
2018-07-08T17:39:52.413Z,97591.50
2018-07-08T17:42:34.966Z,97592.59
2018-07-08T17:45:20.139Z,97594.69
2018-07-08T17:48:03.254Z,97593.27
2018-07-08T17:50:55.256Z,97593.23
2018-07-08T17:53:36.503Z,97591.33
2018-07-08T17:58:55.847Z,97595.23
2018-07-08T18:04:28.617Z,97598.05
2018-07-08T18:07:14.017Z,97602.48
2018-07-08T18:09:57.623Z,97602.78
2018-07-08T18:12:37.184Z,97600.47
2018-07-08T18:15:16.985Z,97604.50
2018-07-08T18:17:55.901Z,97593.03
2018-07-08T18:20:34.357Z,97597.06
2018-07-08T18:23:13.690Z,97602.19
2018-07-08T18:25:53.317Z,97612.32
2018-07-08T18:28:32.998Z,97616.16
2018-07-08T18:31:13.707Z,97612.77
2018-07-08T18:33:55.633Z,97616.78
2018-07-08T18:36:35.890Z,97625.29
2018-07-08T18:39:20.358Z,97627.12
2018-07-08T18:42:08.675Z,97629.59
2018-07-08T18:44:53.515Z,97645.86
2018-07-08T18:47:31.532Z,97637.55
2018-07-08T18:50:11.048Z,97640.28
2018-07-08T18:52:52.820Z,97644.89
2018-07-08T18:55:33.214Z,97649.95
2018-07-08T18:58:19.895Z,97644.57
2018-07-08T19:00:58.953Z,97658.05
2018-07-08T19:03:40.941Z,97657.22
2018-07-08T19:06:18.895Z,97661.25
2018-07-08T19:09:02.210Z,97659.94
2018-07-08T19:11:46.042Z,97661.27
2018-07-08T19:17:08.763Z,97675.50
2018-07-08T19:19:52.101Z,97673.59
2018-07-08T19:22:33.015Z,97679.23
2018-07-08T19:25:12.123Z,97683.27
2018-07-08T19:27:54.302Z,97691.59
2018-07-08T19:30:39.579Z,97699.07
2018-07-08T19:33:21.385Z,97693.17
2018-07-08T19:36:00.752Z,97699.91
2018-07-08T19:38:42.235Z,97704.29
2018-07-08T19:41:21.371Z,97704.81
2018-07-08T19:44:01.876Z,97713.89
2018-07-08T19:46:40.592Z,97709.92
2018-07-08T19:49:22.492Z,97714.03
2018-07-08T19:52:05.497Z,97716.98
2018-07-08T19:54:43.311Z,97717.25
2018-07-08T19:57:22.271Z,97721.32
2018-07-08T20:02:49.154Z,97731.88
2018-07-08T20:05:32.714Z,97729.87
2018-07-08T20:10:58.225Z,97726.64
2018-07-08T20:13:40.556Z,97725.82
2018-07-08T20:16:16.212Z,97723.22
2018-07-08T20:18:55.827Z,97721.70
2018-07-08T20:24:17.498Z,97720.78
2018-07-08T20:26:54.838Z,97724.40
2018-07-08T20:32:21.241Z,97733.06
2018-07-08T20:35:04.482Z,97730.23
2018-07-08T20:37:46.924Z,97726.96
2018-07-08T20:40:23.725Z,97736.99
2018-07-08T20:43:11.239Z,97747.30
2018-07-08T20:45:56.529Z,97739.30
2018-07-08T20:48:37.227Z,97742.42
2018-07-08T20:51:21.066Z,97737.91
2018-07-08T20:53:58.711Z,97738.70
2018-07-08T20:56:37.562Z,97741.80
2018-07-08T20:59:19.342Z,97739.45
2018-07-08T21:02:00.453Z,97739.16
2018-07-08T21:04:35.057Z,97740.86
2018-07-08T21:10:05.725Z,97736.42
2018-07-08T21:12:44.556Z,97737.87
2018-07-08T21:15:25.353Z,97740.20
2018-07-08T21:18:09.378Z,97746.07
2018-07-08T21:20:52.482Z,97743.39
2018-07-08T21:23:31.383Z,97745.26
2018-07-08T21:26:09.635Z,97740.39
2018-07-08T21:28:58.911Z,97741.39
2018-07-08T21:31:43.832Z,97740.95
2018-07-08T21:34:24.417Z,97741.79
2018-07-08T21:37:08.859Z,97735.13
2018-07-08T21:39:46.510Z,97739.11
2018-07-08T21:42:22.856Z,97732.28
2018-07-08T21:45:04.860Z,97739.75
2018-07-08T21:47:44.385Z,97736.60
2018-07-08T21:50:21.896Z,97736.77
2018-07-08T21:53:03.422Z,97737.11
2018-07-08T21:55:39.546Z,97738.21
2018-07-08T21:58:19.087Z,97739.78
2018-07-08T22:01:04.871Z,97742.85
2018-07-08T22:03:47.470Z,97744.83
2018-07-08T22:06:32.145Z,97746.47
2018-07-08T22:09:13.280Z,97742.72
2018-07-08T22:11:51.849Z,97736.70
2018-07-08T22:14:31.829Z,97738.92
2018-07-08T22:17:09.990Z,97742.05
2018-07-08T22:22:40.691Z,97741.30
2018-07-08T22:25:21.042Z,97738.77
2018-07-08T22:28:02.070Z,97743.32
2018-07-08T22:30:38.214Z,97734.30
2018-07-08T22:33:21.302Z,97735.11
2018-07-08T22:36:04.107Z,97737.00
2018-07-08T22:38:43.443Z,97732.61
2018-07-08T22:41:22.169Z,97736.63
2018-07-08T22:43:54.944Z,97734.38
2018-07-08T22:46:37.545Z,97735.18
2018-07-08T22:49:20.656Z,97730.78
2018-07-08T22:51:57.230Z,97723.19
2018-07-08T22:54:37.558Z,97729.77
2018-07-08T22:57:24.427Z,97728.67
2018-07-08T23:00:06.619Z,97731.34
2018-07-08T23:02:46.170Z,97730.00
2018-07-08T23:05:26.649Z,97735.47
2018-07-08T23:08:02.252Z,97732.81
2018-07-08T23:10:42.649Z,97734.64
2018-07-08T23:13:24.844Z,97735.52
2018-07-08T23:16:03.597Z,97731.27
2018-07-08T23:18:38.637Z,97732.78
2018-07-08T23:24:15.118Z,97735.02
2018-07-08T23:26:51.569Z,97735.33
2018-07-08T23:29:31.421Z,97733.03
2018-07-08T23:32:07.694Z,97733.84
2018-07-08T23:34:47.228Z,97733.69
2018-07-08T23:37:24.579Z,97729.52
2018-07-08T23:40:04.152Z,97730.70
2018-07-08T23:42:42.697Z,97730.53
2018-07-08T23:45:23.547Z,97733.14
2018-07-08T23:48:00.698Z,97736.45
2018-07-08T23:50:48.979Z,97735.12
2018-07-08T23:53:27.069Z,97732.44
2018-07-08T23:56:04.803Z,97732.98
2018-07-08T23:58:47.256Z,97733.42
